createdAt,value
2023-01-19T00:05:07.565Z,0.20
2023-01-19T00:11:50.070Z,0.10
2023-01-19T00:18:32.683Z,0.00
2023-01-19T00:25:15.036Z,0.10
2023-01-19T00:31:57.294Z,0.00
2023-01-19T00:38:39.521Z,0.00
2023-01-19T00:45:23.995Z,0.00
2023-01-19T00:52:06.710Z,0.00
2023-01-19T00:58:49.030Z,-0.10
2023-01-19T01:05:31.793Z,-0.30
2023-01-19T01:12:14.221Z,-0.20
2023-01-19T01:18:57.617Z,-0.20
2023-01-19T01:25:40.244Z,-0.30
2023-01-19T01:32:23.414Z,-0.50
2023-01-19T01:39:06.163Z,-0.50
2023-01-19T01:45:48.527Z,-0.50
2023-01-19T01:52:33.715Z,-0.50
2023-01-19T01:59:38.983Z,-0.60
2023-01-19T02:06:22.219Z,-0.60
2023-01-19T02:13:23.235Z,-0.50
2023-01-19T02:20:06.181Z,-0.50
2023-01-19T02:26:49.289Z,-0.50
2023-01-19T02:33:31.828Z,-0.50
2023-01-19T02:40:17.256Z,-0.50
2023-01-19T02:46:59.738Z,-0.50
2023-01-19T02:54:04.158Z,-0.50
2023-01-19T03:01:13.542Z,-0.50
2023-01-19T03:08:18.092Z,-0.60
2023-01-19T03:15:09.715Z,-0.70
2023-01-19T03:21:58.345Z,-0.70
2023-01-19T03:28:44.177Z,-0.70
2023-01-19T03:35:30.634Z,-0.80
2023-01-19T03:42:15.750Z,-0.80
2023-01-19T03:48:58.798Z,-0.80
2023-01-19T03:55:44.710Z,-0.90
2023-01-19T04:02:27.042Z,-0.90
2023-01-19T04:09:09.436Z,-0.90
2023-01-19T04:15:51.756Z,-1.00
2023-01-19T04:22:34.307Z,-1.00
2023-01-19T04:29:16.681Z,-1.00
2023-01-19T04:35:59.027Z,-1.00
2023-01-19T04:42:45.707Z,-1.00
2023-01-19T04:49:28.028Z,-1.00
2023-01-19T04:56:10.584Z,-1.10
2023-01-19T05:02:53.480Z,-1.10
2023-01-19T05:09:35.855Z,-1.10
2023-01-19T05:16:18.421Z,-1.00
2023-01-19T05:23:01.082Z,-1.00
2023-01-19T05:29:44.547Z,-1.20
2023-01-19T05:36:27.673Z,-0.90
2023-01-19T05:43:10.217Z,-0.80
2023-01-19T05:49:52.517Z,-0.70
2023-01-19T05:56:35.865Z,-0.60
2023-01-19T06:03:18.390Z,-0.50
2023-01-19T06:10:00.752Z,-0.70
2023-01-19T06:16:43.710Z,-0.80
2023-01-19T06:23:27.215Z,-0.70
2023-01-19T06:30:10.387Z,-0.80
2023-01-19T06:36:52.652Z,-0.80
2023-01-19T06:43:34.971Z,-0.70
2023-01-19T06:50:17.491Z,-0.60
2023-01-19T06:57:01.195Z,-0.50
2023-01-19T07:03:46.801Z,-0.40
2023-01-19T07:11:26.217Z,-0.40
2023-01-19T07:17:31.589Z,-0.40
2023-01-19T07:24:14.074Z,-0.50
2023-01-19T07:30:57.304Z,-0.40
2023-01-19T07:37:39.740Z,-0.40
2023-01-19T07:44:22.097Z,-0.50
2023-01-19T07:51:06.317Z,-0.50
2023-01-19T07:57:52.425Z,-0.40
2023-01-19T08:04:34.829Z,-0.30
2023-01-19T08:11:17.228Z,-0.20
2023-01-19T08:18:05.853Z,0.60
2023-01-19T08:24:50.282Z,2.40
2023-01-19T08:31:33.421Z,2.70
2023-01-19T08:38:17.044Z,1.60
2023-01-19T08:44:59.369Z,1.60
2023-01-19T08:51:41.914Z,1.20
2023-01-19T08:58:24.298Z,1.50
2023-01-19T09:05:07.192Z,2.00
2023-01-19T09:11:49.467Z,1.40
2023-01-19T09:18:32.007Z,2.70
2023-01-19T09:25:14.281Z,2.90
2023-01-19T09:31:57.633Z,4.80
2023-01-19T09:38:40.013Z,3.60
2023-01-19T09:45:48.378Z,3.00
2023-01-19T09:52:35.137Z,2.70
2023-01-19T09:59:22.226Z,2.80
2023-01-19T10:06:08.160Z,3.00
2023-01-19T10:13:28.918Z,3.10
2023-01-19T10:20:17.948Z,3.10
2023-01-19T10:27:00.735Z,3.10
2023-01-19T10:33:43.500Z,3.10
2023-01-19T10:40:36.207Z,3.40
2023-01-19T10:47:21.254Z,3.00
2023-01-19T10:54:04.692Z,3.50
2023-01-19T11:00:47.126Z,3.30
2023-01-19T11:07:35.590Z,2.90
2023-01-19T11:14:21.920Z,3.20
2023-01-19T11:21:16.303Z,3.80
2023-01-19T11:27:58.657Z,4.00
2023-01-19T11:34:41.189Z,4.00
2023-01-19T11:41:34.520Z,4.10
2023-01-19T11:48:30.091Z,3.80
2023-01-19T11:55:17.201Z,3.80
2023-01-19T12:02:04.328Z,4.10
2023-01-19T12:08:55.596Z,4.10
2023-01-19T12:15:42.912Z,4.20
2023-01-19T12:22:29.295Z,4.30
2023-01-19T12:29:14.087Z,4.50
2023-01-19T12:36:03.801Z,4.40
2023-01-19T12:42:50.530Z,4.50
2023-01-19T12:49:42.400Z,4.40
2023-01-19T12:56:31.300Z,4.00
2023-01-19T13:03:16.335Z,4.10
2023-01-19T13:09:58.851Z,4.30
2023-01-19T13:16:41.082Z,3.90
2023-01-19T13:23:54.264Z,3.30
2023-01-19T13:30:39.846Z,3.10
2023-01-19T13:37:26.205Z,2.90
2023-01-19T13:44:14.787Z,3.00
2023-01-19T13:51:16.918Z,3.10
2023-01-19T13:57:59.350Z,3.20
2023-01-19T14:04:42.248Z,3.40
2023-01-19T14:11:24.720Z,3.50
2023-01-19T14:18:19.040Z,3.50
2023-01-19T14:25:30.513Z,3.50
2023-01-19T14:32:13.792Z,3.40
2023-01-19T14:38:59.245Z,3.40
2023-01-19T14:45:47.322Z,3.50
2023-01-19T14:52:40.935Z,3.30
2023-01-19T14:59:23.273Z,3.10
2023-01-19T15:06:05.770Z,3.30
2023-01-19T15:12:49.760Z,3.20
2023-01-19T15:19:32.137Z,3.20
2023-01-19T15:26:17.625Z,3.20
2023-01-19T15:33:00.005Z,3.30
2023-01-19T15:39:43.295Z,3.00
2023-01-19T15:46:26.390Z,3.20
2023-01-19T15:53:14.694Z,3.30
2023-01-19T15:59:56.982Z,3.40
2023-01-19T16:06:39.582Z,3.30
2023-01-19T16:13:22.207Z,3.20
2023-01-19T16:20:05.510Z,3.00
2023-01-19T16:26:47.809Z,3.10
2023-01-19T16:33:30.235Z,3.10
2023-01-19T16:40:13.137Z,3.10
2023-01-19T16:46:55.652Z,2.90
2023-01-19T16:53:38.703Z,2.70
2023-01-19T17:00:21.340Z,2.50
2023-01-19T17:07:03.662Z,2.50
2023-01-19T17:13:47.233Z,2.50
2023-01-19T17:20:29.538Z,2.60
2023-01-19T17:27:11.944Z,2.60
2023-01-19T17:33:54.318Z,2.40
2023-01-19T17:40:37.780Z,2.30
2023-01-19T17:47:25.325Z,2.20
2023-01-19T17:54:07.965Z,2.30
2023-01-19T18:00:50.493Z,2.30
2023-01-19T18:07:32.854Z,2.20
2023-01-19T18:14:15.502Z,2.00
2023-01-19T18:20:59.551Z,1.90
2023-01-19T18:27:41.888Z,2.00
2023-01-19T18:34:24.170Z,2.10
2023-01-19T18:41:18.176Z,2.10
2023-01-19T18:48:02.235Z,2.20
2023-01-19T18:54:44.582Z,2.20
2023-01-19T19:01:32.505Z,1.90
2023-01-19T19:08:15.238Z,1.70
2023-01-19T19:14:57.839Z,1.90
2023-01-19T19:21:40.137Z,2.10
2023-01-19T19:28:22.450Z,1.80
2023-01-19T19:35:05.195Z,1.80
2023-01-19T19:41:47.470Z,1.90
2023-01-19T19:48:30.336Z,1.80
2023-01-19T19:55:12.855Z,1.90
2023-01-19T20:01:55.299Z,2.10
2023-01-19T20:08:37.693Z,2.10
2023-01-19T20:15:20.051Z,2.00
2023-01-19T20:22:02.375Z,2.20
2023-01-19T20:28:44.689Z,2.30
2023-01-19T20:35:26.982Z,2.20
2023-01-19T20:42:11.480Z,2.20
2023-01-19T20:48:54.688Z,2.20
2023-01-19T20:55:37.465Z,2.00
2023-01-19T21:02:20.348Z,2.20
2023-01-19T21:09:02.801Z,1.70
2023-01-19T21:15:45.255Z,1.70
2023-01-19T21:22:27.591Z,1.70
2023-01-19T21:29:13.224Z,1.90
2023-01-19T21:35:57.861Z,1.80
2023-01-19T21:42:40.516Z,1.70
2023-01-19T21:49:22.923Z,1.60
2023-01-19T21:56:10.557Z,1.70
2023-01-19T22:03:03.450Z,1.80
2023-01-19T22:09:48.092Z,1.70
2023-01-19T22:16:31.143Z,1.60
2023-01-19T22:23:13.462Z,1.50
2023-01-19T22:29:55.784Z,1.30
2023-01-19T22:36:38.358Z,1.20
2023-01-19T22:43:20.894Z,1.30
2023-01-19T22:50:03.252Z,1.50
2023-01-19T22:56:45.973Z,1.30
2023-01-19T23:03:29.365Z,1.20
2023-01-19T23:10:11.898Z,1.40
2023-01-19T23:16:54.214Z,1.50
2023-01-19T23:23:36.853Z,1.40
2023-01-19T23:30:19.500Z,1.60
2023-01-19T23:37:01.864Z,1.60
2023-01-19T23:43:45.037Z,1.80
2023-01-19T23:50:27.473Z,1.70
2023-01-19T23:57:09.947Z,1.60
